KMVY

Martha's Vineyard Airport

Vineyard Haven, Massachusetts, USA
METAR KMVY 171553Z 21008KT 6SM HZ CLR 29/24 A3007 RMK AO2 SLP182 T02890239
Observed Flight Rules
Aug-17 @ 15:53 UTC (59 minutes ago) Visual Flight Rules
Wind Visibility Clouds Conditions
210° at 8 knots 6 miles
  • Clear skies
  • Haze
Temperatures Readings
Current 29°C / 84°F
Dewpoint 24°C / 75°F
Humidity 74%
Altimeter 30.07" Hg
Pressure 1018.2 hPa
Elevation 16
METAR KMVY 171553Z 21008KT 6SM HZ CLR 29/24 A3007 RMK AO2 SLP182 T02890239
Observed Flight Rules
Aug-17 @ 15:53 UTC
(59 minutes ago)
VFR
Wind Visibility
210° at 8 knots 6 miles
Clouds
  • Clear skies
Conditions
  • Haze
Temperature Dewpoint
29°C / 84°F 24°C / 75°F
Humidity Altimeter Pressure
74% 30.07" Hg 1018.2 hPa